createdAt,value
2022-10-13T00:01:59.051Z,4.48
2022-10-13T00:05:04.644Z,4.30
2022-10-13T00:08:10.341Z,4.30
2022-10-13T00:11:36.416Z,4.25
2022-10-13T00:14:43.035Z,4.24
2022-10-13T00:17:51.427Z,4.20
2022-10-13T00:21:00.589Z,4.25
2022-10-13T00:24:06.337Z,4.25
2022-10-13T00:27:16.158Z,4.26
2022-10-13T00:30:22.034Z,4.17
2022-10-13T00:33:32.401Z,4.07
2022-10-13T00:36:38.099Z,4.04
2022-10-13T00:39:43.854Z,3.81
2022-10-13T00:42:52.067Z,3.53
2022-10-13T00:45:58.252Z,3.50
2022-10-13T00:49:12.802Z,3.56
2022-10-13T00:52:28.662Z,3.54
2022-10-13T00:55:46.547Z,3.50
2022-10-13T00:58:59.803Z,3.51
2022-10-13T01:02:12.197Z,3.58
2022-10-13T01:05:20.200Z,3.72
2022-10-13T01:08:27.597Z,3.65
2022-10-13T01:12:08.491Z,3.65
2022-10-13T01:15:32.372Z,3.63
2022-10-13T01:18:52.886Z,3.62
2022-10-13T01:22:34.199Z,3.59
2022-10-13T01:26:12.629Z,3.68
2022-10-13T01:30:07.799Z,3.73
2022-10-13T01:33:38.482Z,3.73
2022-10-13T01:37:01.961Z,3.80
2022-10-13T01:40:19.648Z,3.76
2022-10-13T01:43:36.707Z,3.70
2022-10-13T01:46:50.251Z,3.71
2022-10-13T01:49:59.110Z,3.64
2022-10-13T01:53:08.323Z,3.34
2022-10-13T01:56:14.246Z,3.14
2022-10-13T01:59:20.528Z,3.08
2022-10-13T02:02:40.275Z,2.93
2022-10-13T02:06:08.791Z,2.68
2022-10-13T02:09:30.135Z,2.38
2022-10-13T02:12:47.198Z,2.38
2022-10-13T02:15:59.681Z,2.39
2022-10-13T02:19:16.103Z,2.21
2022-10-13T02:22:29.321Z,2.22
2022-10-13T02:25:40.432Z,2.01
2022-10-13T02:28:49.394Z,2.00
2022-10-13T02:31:55.575Z,1.94
2022-10-13T02:35:03.800Z,1.89
2022-10-13T02:38:09.976Z,1.85
2022-10-13T02:41:15.481Z,1.83
2022-10-13T02:44:21.202Z,1.87
2022-10-13T02:47:34.933Z,1.83
2022-10-13T02:50:45.249Z,2.14
2022-10-13T02:53:50.812Z,2.07
2022-10-13T02:56:56.311Z,2.03
2022-10-13T03:00:02.150Z,2.12
2022-10-13T03:03:07.788Z,2.28
2022-10-13T03:06:16.578Z,2.29
2022-10-13T03:09:22.279Z,2.20
2022-10-13T03:12:40.725Z,2.25
2022-10-13T03:15:46.481Z,2.39
2022-10-13T03:18:52.213Z,2.47
2022-10-13T03:22:03.047Z,2.63
2022-10-13T03:25:16.604Z,2.72
2022-10-13T03:28:31.566Z,2.83
2022-10-13T03:31:37.220Z,2.76
2022-10-13T03:34:42.811Z,2.90
2022-10-13T03:37:53.219Z,2.94
2022-10-13T03:41:08.100Z,2.99
2022-10-13T03:44:16.209Z,3.04
2022-10-13T03:47:21.749Z,3.02
2022-10-13T03:50:33.497Z,2.79
2022-10-13T03:53:43.258Z,2.81
2022-10-13T03:56:48.789Z,2.57
2022-10-13T03:59:58.355Z,2.40
2022-10-13T04:03:05.604Z,2.10
2022-10-13T04:06:12.693Z,1.98
2022-10-13T04:09:20.839Z,1.91
2022-10-13T04:12:27.005Z,1.91
2022-10-13T04:15:32.895Z,1.67
2022-10-13T04:18:43.670Z,1.48
2022-10-13T04:21:50.402Z,1.38
2022-10-13T04:24:58.581Z,1.25
2022-10-13T04:28:05.879Z,1.31
2022-10-13T04:31:15.556Z,1.33
2022-10-13T04:34:21.230Z,1.28
2022-10-13T04:37:30.671Z,1.22
2022-10-13T04:40:45.480Z,1.10
2022-10-13T04:43:53.009Z,1.02
2022-10-13T04:46:58.718Z,1.06
2022-10-13T04:50:16.616Z,1.04
2022-10-13T04:53:37.656Z,1.10
2022-10-13T04:56:54.497Z,1.17
2022-10-13T05:00:02.980Z,1.22
2022-10-13T05:03:09.814Z,1.32
2022-10-13T05:06:20.643Z,1.33
2022-10-13T05:09:27.996Z,1.36
2022-10-13T05:12:36.421Z,1.37
2022-10-13T05:15:42.511Z,1.39
2022-10-13T05:18:53.452Z,1.44
2022-10-13T05:21:58.997Z,1.52
2022-10-13T05:25:08.313Z,1.45
2022-10-13T05:28:17.006Z,1.69
2022-10-13T05:31:26.532Z,1.99
2022-10-13T05:34:32.796Z,2.11
2022-10-13T05:37:42.709Z,2.33
2022-10-13T05:40:48.838Z,2.30
2022-10-13T05:44:01.083Z,2.24
2022-10-13T05:47:07.731Z,2.29
2022-10-13T05:50:13.789Z,2.21
2022-10-13T05:53:20.821Z,2.01
2022-10-13T05:56:35.561Z,2.01
2022-10-13T05:59:52.594Z,2.13
2022-10-13T06:03:11.862Z,2.37
2022-10-13T06:06:22.360Z,2.19
2022-10-13T06:09:42.740Z,2.17
2022-10-13T06:12:51.077Z,2.20
2022-10-13T06:15:59.317Z,2.28
2022-10-13T06:19:16.161Z,2.48
2022-10-13T06:22:22.578Z,2.68
2022-10-13T06:25:32.418Z,2.88
2022-10-13T06:28:38.812Z,3.17
2022-10-13T06:31:47.013Z,3.59
2022-10-13T06:34:52.990Z,4.22
2022-10-13T06:38:00.139Z,4.31
2022-10-13T06:41:08.724Z,4.84
2022-10-13T06:44:15.213Z,5.42
2022-10-13T06:47:23.614Z,6.01
2022-10-13T06:50:29.778Z,6.02
2022-10-13T06:53:36.285Z,6.44
2022-10-13T06:56:41.904Z,6.69
2022-10-13T06:59:49.264Z,6.52
2022-10-13T07:02:57.605Z,6.83
2022-10-13T07:06:07.636Z,7.07
2022-10-13T07:09:13.519Z,7.14
2022-10-13T07:12:19.794Z,7.16
2022-10-13T07:15:26.102Z,7.63
2022-10-13T07:18:34.779Z,7.55
2022-10-13T07:21:40.366Z,7.15
2022-10-13T07:24:46.426Z,7.16
2022-10-13T07:27:51.993Z,7.08
2022-10-13T07:30:57.824Z,7.30
2022-10-13T07:34:06.887Z,8.11
2022-10-13T07:37:12.464Z,7.63
2022-10-13T07:40:18.049Z,7.51
2022-10-13T07:43:23.693Z,7.24
2022-10-13T07:46:29.890Z,7.38
2022-10-13T07:49:38.898Z,9.09
2022-10-13T07:52:45.127Z,9.22
2022-10-13T07:55:51.071Z,8.23
2022-10-13T07:58:57.604Z,8.27
2022-10-13T08:02:03.691Z,9.15
2022-10-13T08:05:12.504Z,10.15
2022-10-13T08:08:18.172Z,10.55
2022-10-13T08:11:23.855Z,10.50
2022-10-13T08:14:29.532Z,11.35
2022-10-13T08:17:35.556Z,10.75
2022-10-13T08:20:48.855Z,10.03
2022-10-13T08:23:56.670Z,11.52
2022-10-13T08:27:02.270Z,11.91
2022-10-13T08:30:09.679Z,12.51
2022-10-13T08:33:15.741Z,13.55
2022-10-13T08:36:28.782Z,13.31
2022-10-13T08:39:36.305Z,13.87
2022-10-13T08:42:46.883Z,12.75
2022-10-13T08:45:58.432Z,13.40
2022-10-13T08:49:07.901Z,14.32
2022-10-13T08:52:25.742Z,13.61
2022-10-13T08:55:39.377Z,14.66
2022-10-13T08:58:51.612Z,15.21
2022-10-13T09:02:00.317Z,14.44
2022-10-13T09:05:12.632Z,14.87
2022-10-13T09:08:25.746Z,14.47
2022-10-13T09:11:36.563Z,14.58
2022-10-13T09:14:44.998Z,15.13
2022-10-13T09:18:16.620Z,15.22
2022-10-13T09:21:26.538Z,16.34
2022-10-13T09:24:35.294Z,16.69
2022-10-13T09:27:48.191Z,17.56
2022-10-13T09:31:10.268Z,16.56
2022-10-13T09:34:30.438Z,17.41
2022-10-13T09:37:37.222Z,16.34
2022-10-13T09:40:47.083Z,16.67
2022-10-13T09:44:13.719Z,16.05
2022-10-13T09:47:26.766Z,16.84
2022-10-13T09:50:36.232Z,16.72
2022-10-13T09:53:44.332Z,16.42
2022-10-13T09:57:02.776Z,16.71
2022-10-13T10:00:20.201Z,17.79
2022-10-13T10:03:35.128Z,18.58
2022-10-13T10:06:44.072Z,18.65
2022-10-13T10:09:57.247Z,18.17
2022-10-13T10:13:14.218Z,18.32
2022-10-13T10:16:33.711Z,18.98
2022-10-13T10:20:02.651Z,18.45
2022-10-13T10:23:17.513Z,18.65
2022-10-13T10:26:33.087Z,18.51
2022-10-13T10:29:56.317Z,18.76
2022-10-13T10:33:12.217Z,18.18
2022-10-13T10:36:31.209Z,18.95
2022-10-13T10:39:49.607Z,19.91
2022-10-13T10:43:35.635Z,20.41
2022-10-13T10:46:50.279Z,20.12
2022-10-13T10:50:05.444Z,18.83
2022-10-13T10:53:25.953Z,19.49
2022-10-13T10:56:41.295Z,19.81
2022-10-13T11:00:14.197Z,19.57
2022-10-13T11:03:43.385Z,19.48
2022-10-13T11:06:49.120Z,18.27
2022-10-13T11:10:22.646Z,17.11
2022-10-13T11:13:28.787Z,16.29
2022-10-13T11:16:39.117Z,15.73
2022-10-13T11:19:56.105Z,16.14
2022-10-13T11:23:36.766Z,17.03
2022-10-13T11:26:46.921Z,18.15
2022-10-13T11:30:00.437Z,18.45
2022-10-13T11:33:27.063Z,17.63
2022-10-13T11:36:54.557Z,17.45
2022-10-13T11:40:36.587Z,16.62
2022-10-13T11:44:05.762Z,15.39
2022-10-13T11:47:43.216Z,14.80
2022-10-13T11:51:16.407Z,15.05
2022-10-13T11:54:39.631Z,15.60
2022-10-13T11:57:46.081Z,15.78
2022-10-13T12:01:04.509Z,15.03
2022-10-13T12:04:18.110Z,15.00
2022-10-13T12:07:39.974Z,15.74
2022-10-13T12:10:50.029Z,14.92
2022-10-13T12:13:57.558Z,15.47
2022-10-13T12:17:08.606Z,15.60
2022-10-13T12:20:33.809Z,15.58
2022-10-13T12:23:41.486Z,15.04
2022-10-13T12:26:52.005Z,15.20
2022-10-13T12:30:17.870Z,15.65
2022-10-13T12:33:37.950Z,15.99
2022-10-13T12:36:47.859Z,16.70
2022-10-13T12:39:54.896Z,16.93
2022-10-13T12:43:10.059Z,16.82
2022-10-13T12:46:16.389Z,16.49
2022-10-13T12:49:26.566Z,16.35
2022-10-13T12:52:32.336Z,16.40
2022-10-13T12:55:50.460Z,16.66
2022-10-13T12:58:59.768Z,16.97
2022-10-13T13:02:20.850Z,17.63
2022-10-13T13:05:35.968Z,17.15
2022-10-13T13:08:42.258Z,17.26
2022-10-13T13:11:48.113Z,17.27
2022-10-13T13:14:57.787Z,15.80
2022-10-13T13:18:42.661Z,15.63
2022-10-13T13:21:48.211Z,14.79
2022-10-13T13:24:55.020Z,15.11
2022-10-13T13:28:00.626Z,14.70
2022-10-13T13:31:14.580Z,14.63
2022-10-13T13:34:22.401Z,14.70
2022-10-13T13:37:38.310Z,14.30
2022-10-13T13:40:44.254Z,14.83
2022-10-13T13:43:51.434Z,15.21
2022-10-13T13:46:59.590Z,14.73
2022-10-13T13:50:20.784Z,14.69
2022-10-13T13:53:43.223Z,14.71
2022-10-13T13:56:53.321Z,14.52
2022-10-13T14:00:09.916Z,14.38
2022-10-13T14:03:25.708Z,14.25
2022-10-13T14:06:31.611Z,14.50
2022-10-13T14:09:37.227Z,14.42
2022-10-13T14:12:42.792Z,14.65
2022-10-13T14:15:48.544Z,14.63
2022-10-13T14:18:57.899Z,14.40
2022-10-13T14:22:09.329Z,14.44
2022-10-13T14:25:21.786Z,14.27
2022-10-13T14:28:29.351Z,13.89
2022-10-13T14:31:36.390Z,14.04
2022-10-13T14:34:44.563Z,14.27
2022-10-13T14:37:50.165Z,14.49
2022-10-13T14:40:55.921Z,14.19
2022-10-13T14:44:04.786Z,13.99
2022-10-13T14:47:10.915Z,13.90
2022-10-13T14:50:25.158Z,13.70
2022-10-13T14:53:42.345Z,13.66
2022-10-13T14:56:50.823Z,13.62
2022-10-13T15:00:00.901Z,13.45
2022-10-13T15:03:10.021Z,13.46
2022-10-13T15:06:22.693Z,13.52
2022-10-13T15:09:38.970Z,13.49
2022-10-13T15:12:55.146Z,13.62
2022-10-13T15:16:04.972Z,13.40
2022-10-13T15:19:10.813Z,13.25
2022-10-13T15:22:19.170Z,13.15
2022-10-13T15:25:30.264Z,13.18
2022-10-13T15:28:41.083Z,13.32
2022-10-13T15:31:48.703Z,13.44
2022-10-13T15:34:55.793Z,13.54
2022-10-13T15:38:04.077Z,13.58
2022-10-13T15:41:12.472Z,13.49
2022-10-13T15:44:21.225Z,13.34
2022-10-13T15:47:26.859Z,13.34
2022-10-13T15:50:32.822Z,13.36
2022-10-13T15:53:41.927Z,13.27
2022-10-13T15:56:48.244Z,13.23
2022-10-13T15:59:53.837Z,13.07
2022-10-13T16:02:59.516Z,12.93
2022-10-13T16:06:08.718Z,12.93
2022-10-13T16:09:17.080Z,12.95
2022-10-13T16:12:24.431Z,12.73
2022-10-13T16:15:30.667Z,12.42
2022-10-13T16:18:38.917Z,12.29
2022-10-13T16:21:46.854Z,12.25
2022-10-13T16:24:56.965Z,12.14
2022-10-13T16:28:02.920Z,11.89
2022-10-13T16:31:12.857Z,11.82
2022-10-13T16:34:20.923Z,11.89
2022-10-13T16:37:26.938Z,11.90
2022-10-13T16:40:35.459Z,11.84
2022-10-13T16:43:42.099Z,11.70
2022-10-13T16:46:49.719Z,11.65
2022-10-13T16:49:55.365Z,11.51
2022-10-13T16:53:02.876Z,11.30
2022-10-13T16:56:14.377Z,11.27
2022-10-13T16:59:20.197Z,11.30
2022-10-13T17:02:25.982Z,11.33
2022-10-13T17:05:31.843Z,11.24
2022-10-13T17:08:38.194Z,11.12
2022-10-13T17:11:46.631Z,11.06
2022-10-13T17:14:52.277Z,10.91
2022-10-13T17:17:58.019Z,10.67
2022-10-13T17:21:09.137Z,10.56
2022-10-13T17:24:15.721Z,10.45
2022-10-13T17:27:26.305Z,10.41
2022-10-13T17:30:32.043Z,10.36
2022-10-13T17:33:47.019Z,10.26
2022-10-13T17:36:56.257Z,10.16
2022-10-13T17:40:01.910Z,10.07
2022-10-13T17:43:10.389Z,9.93
2022-10-13T17:46:37.450Z,9.92
2022-10-13T17:49:44.578Z,9.99
2022-10-13T17:52:58.710Z,10.00
2022-10-13T17:56:04.865Z,9.81
2022-10-13T17:59:17.160Z,9.72
2022-10-13T18:02:23.025Z,9.80
2022-10-13T18:05:28.565Z,9.96
2022-10-13T18:08:36.141Z,9.96
2022-10-13T18:11:45.660Z,9.83
2022-10-13T18:15:00.006Z,9.68
2022-10-13T18:18:16.943Z,9.76
2022-10-13T18:21:26.933Z,9.86
2022-10-13T18:24:32.735Z,9.74
2022-10-13T18:27:38.310Z,9.73
2022-10-13T18:30:46.578Z,9.79
2022-10-13T18:33:53.462Z,9.80
2022-10-13T18:36:59.130Z,9.84
2022-10-13T18:40:04.991Z,9.62
2022-10-13T18:43:13.946Z,9.54
2022-10-13T18:46:22.671Z,9.47
2022-10-13T18:49:33.559Z,9.25
2022-10-13T18:52:39.288Z,9.20
2022-10-13T18:55:46.278Z,9.30
2022-10-13T18:58:58.477Z,9.47
2022-10-13T19:02:27.667Z,9.48
2022-10-13T19:05:33.291Z,9.60
2022-10-13T19:08:39.129Z,9.36
2022-10-13T19:11:45.069Z,9.26
2022-10-13T19:14:53.331Z,9.09
2022-10-13T19:18:04.863Z,8.90
2022-10-13T19:21:13.353Z,8.85
2022-10-13T19:24:18.942Z,8.92
2022-10-13T19:27:25.074Z,8.95
2022-10-13T19:30:30.736Z,9.05
2022-10-13T19:33:44.281Z,9.05
2022-10-13T19:36:50.999Z,8.91
2022-10-13T19:39:56.629Z,8.86
2022-10-13T19:43:10.005Z,8.83
2022-10-13T19:46:39.448Z,8.79
2022-10-13T19:49:47.759Z,8.80
2022-10-13T19:52:58.945Z,8.84
2022-10-13T19:56:21.366Z,8.94
2022-10-13T19:59:27.095Z,8.86
2022-10-13T20:02:32.687Z,8.71
2022-10-13T20:05:45.035Z,8.66
2022-10-13T20:08:51.028Z,8.42
2022-10-13T20:12:01.862Z,8.21
2022-10-13T20:15:09.648Z,8.02
2022-10-13T20:18:15.802Z,7.91
2022-10-13T20:21:27.529Z,7.83
2022-10-13T20:24:33.283Z,7.78
2022-10-13T20:27:39.698Z,7.77
2022-10-13T20:30:47.631Z,7.89
2022-10-13T20:33:58.598Z,7.73
2022-10-13T20:37:12.439Z,7.69
2022-10-13T20:40:18.370Z,7.64
2022-10-13T20:43:25.906Z,7.74
2022-10-13T20:46:31.805Z,7.64
2022-10-13T20:49:39.770Z,7.83
2022-10-13T20:52:48.037Z,7.94
2022-10-13T20:55:59.081Z,8.08
2022-10-13T20:59:06.149Z,8.01
2022-10-13T21:02:16.929Z,7.96
2022-10-13T21:05:22.498Z,7.87
2022-10-13T21:08:30.697Z,7.83
2022-10-13T21:11:37.798Z,7.86
2022-10-13T21:14:43.455Z,7.87
2022-10-13T21:17:49.629Z,7.95
2022-10-13T21:20:55.291Z,7.87
2022-10-13T21:24:07.895Z,7.85
2022-10-13T21:27:16.214Z,7.86
2022-10-13T21:30:22.371Z,7.89
2022-10-13T21:33:27.983Z,7.99
2022-10-13T21:36:36.887Z,7.96
2022-10-13T21:39:45.401Z,7.90
2022-10-13T21:42:51.211Z,7.70
2022-10-13T21:45:56.811Z,7.60
2022-10-13T21:49:05.584Z,7.72
2022-10-13T21:52:11.154Z,7.90
2022-10-13T21:55:19.448Z,7.88
2022-10-13T21:58:26.670Z,7.80
2022-10-13T22:01:32.507Z,7.59
2022-10-13T22:04:40.303Z,7.52
2022-10-13T22:07:45.869Z,7.73
2022-10-13T22:10:54.078Z,7.66
2022-10-13T22:14:00.788Z,7.48
2022-10-13T22:17:07.991Z,7.44
2022-10-13T22:20:13.561Z,7.38
2022-10-13T22:23:19.140Z,7.43
2022-10-13T22:26:27.824Z,7.57
2022-10-13T22:29:33.371Z,7.45
2022-10-13T22:32:38.959Z,7.42
2022-10-13T22:35:46.897Z,7.42
2022-10-13T22:38:58.249Z,7.62
2022-10-13T22:42:07.145Z,7.62
2022-10-13T22:45:13.953Z,7.56
2022-10-13T22:48:19.718Z,7.71
2022-10-13T22:51:28.688Z,7.82
2022-10-13T22:54:34.284Z,7.93
2022-10-13T22:57:42.750Z,8.06
2022-10-13T23:00:48.352Z,8.22
2022-10-13T23:03:58.186Z,8.40
2022-10-13T23:07:03.772Z,8.37
2022-10-13T23:10:11.399Z,8.26
2022-10-13T23:13:19.855Z,8.09
2022-10-13T23:16:31.514Z,7.96
2022-10-13T23:19:37.426Z,7.77
2022-10-13T23:22:45.285Z,7.76
2022-10-13T23:25:50.879Z,7.66
2022-10-13T23:29:01.645Z,7.34
2022-10-13T23:32:09.876Z,7.46
2022-10-13T23:35:15.601Z,7.22
2022-10-13T23:38:21.677Z,7.10
2022-10-13T23:41:27.588Z,6.98
2022-10-13T23:44:35.820Z,7.05
2022-10-13T23:47:41.412Z,7.02
2022-10-13T23:50:47.150Z,6.86
2022-10-13T23:53:53.326Z,6.68
2022-10-13T23:56:59.001Z,6.86
